createdAt,value
2023-01-02T00:01:08.508Z,8.18
2023-01-02T00:03:35.937Z,8.05
2023-01-02T00:06:07.160Z,9.70
2023-01-02T00:08:34.645Z,7.82
2023-01-02T00:11:02.007Z,7.35
2023-01-02T00:13:29.327Z,8.95
2023-01-02T00:15:56.886Z,7.03
2023-01-02T00:18:24.176Z,8.30
2023-01-02T00:20:51.513Z,7.93
2023-01-02T00:23:18.850Z,9.32
2023-01-02T00:25:48.677Z,8.90
2023-01-02T00:28:16.456Z,9.43
2023-01-02T00:30:43.881Z,11.68
2023-01-02T00:33:11.250Z,8.10
2023-01-02T00:35:40.602Z,9.60
2023-01-02T00:38:08.111Z,7.97
2023-01-02T00:40:35.577Z,8.80
2023-01-02T00:43:02.956Z,10.65
2023-01-02T00:45:30.434Z,9.10
2023-01-02T00:47:57.734Z,9.32
2023-01-02T00:50:25.103Z,9.80
2023-01-02T00:52:52.450Z,12.10
2023-01-02T00:55:19.693Z,7.57
2023-01-02T00:57:46.936Z,12.40
2023-01-02T01:00:21.662Z,12.43
2023-01-02T01:02:54.584Z,12.60
2023-01-02T01:05:21.857Z,9.15
2023-01-02T01:07:49.207Z,10.57
2023-01-02T01:10:16.689Z,9.50
2023-01-02T01:12:44.287Z,9.60
2023-01-02T01:15:11.910Z,9.40
2023-01-02T01:17:39.517Z,8.45
2023-01-02T01:20:07.891Z,11.98
2023-01-02T01:22:35.153Z,8.90
2023-01-02T01:25:02.601Z,8.52
2023-01-02T01:27:29.895Z,7.22
2023-01-02T01:29:57.339Z,10.55
2023-01-02T01:32:24.680Z,10.85
2023-01-02T01:34:52.100Z,8.98
2023-01-02T01:37:20.283Z,9.60
2023-01-02T01:39:47.739Z,9.30
2023-01-02T01:42:15.892Z,9.52
2023-01-02T01:44:54.768Z,9.18
2023-01-02T01:47:33.945Z,8.98
2023-01-02T01:50:10.117Z,9.38
2023-01-02T01:52:47.665Z,9.93
2023-01-02T01:55:24.042Z,7.88
2023-01-02T01:58:05.642Z,8.90
2023-01-02T02:00:34.321Z,9.63
2023-01-02T02:03:08.829Z,9.05
2023-01-02T02:05:36.824Z,7.90
2023-01-02T02:08:25.217Z,10.05
2023-01-02T02:10:55.022Z,7.85
2023-01-02T02:13:22.312Z,8.40
2023-01-02T02:16:00.934Z,9.13
2023-01-02T02:18:34.454Z,10.15
2023-01-02T02:21:23.954Z,8.27
2023-01-02T02:24:21.912Z,8.27
2023-01-02T02:27:26.835Z,9.43
2023-01-02T02:30:07.666Z,10.52
2023-01-02T02:32:59.341Z,6.95
2023-01-02T02:35:29.756Z,7.80
2023-01-02T02:38:01.636Z,9.23
2023-01-02T02:43:22.512Z,7.40
2023-01-02T02:46:04.894Z,9.82
2023-01-02T02:48:32.163Z,8.23
2023-01-02T02:51:09.803Z,8.70
2023-01-02T02:53:43.713Z,8.23
2023-01-02T02:56:12.954Z,8.07
2023-01-02T02:58:42.645Z,7.82
2023-01-02T03:01:19.517Z,7.32
2023-01-02T03:03:47.012Z,7.32
2023-01-02T03:06:17.313Z,8.90
2023-01-02T03:09:04.796Z,7.47
2023-01-02T03:12:09.333Z,7.30
2023-01-02T03:14:43.409Z,6.45
2023-01-02T03:17:24.361Z,7.40
2023-01-02T03:19:58.823Z,8.65
2023-01-02T03:22:31.852Z,6.75
2023-01-02T03:24:59.477Z,7.60
2023-01-02T03:27:33.849Z,8.50
2023-01-02T03:30:13.763Z,9.65
2023-01-02T03:33:05.478Z,10.82
2023-01-02T03:35:37.858Z,9.82
2023-01-02T03:38:10.286Z,8.68
2023-01-02T03:40:47.596Z,7.30
2023-01-02T03:43:21.712Z,6.97
2023-01-02T03:46:01.419Z,8.02
2023-01-02T03:48:34.548Z,7.53
2023-01-02T03:51:03.860Z,10.18
2023-01-02T03:53:34.010Z,9.25
2023-01-02T03:56:26.365Z,9.23
2023-01-02T03:59:13.833Z,9.35
2023-01-02T04:01:59.765Z,8.32
2023-01-02T04:04:38.987Z,8.35
2023-01-02T04:07:12.469Z,8.90
2023-01-02T04:09:41.519Z,8.25
2023-01-02T04:12:12.359Z,8.00
2023-01-02T04:14:47.189Z,8.52
2023-01-02T04:17:17.163Z,8.70
2023-01-02T04:19:50.935Z,8.18
2023-01-02T04:22:25.819Z,9.52
2023-01-02T04:25:03.465Z,8.80
2023-01-02T04:27:36.526Z,9.40
2023-01-02T04:30:04.312Z,9.15
2023-01-02T04:32:40.938Z,9.88
2023-01-02T04:35:17.490Z,8.25
2023-01-02T04:37:45.979Z,8.20
2023-01-02T04:40:16.236Z,9.50
2023-01-02T04:42:45.327Z,8.18
2023-01-02T04:45:13.090Z,7.72
2023-01-02T04:47:40.390Z,9.35
2023-01-02T04:50:08.977Z,8.75
2023-01-02T04:52:37.499Z,8.50
2023-01-02T04:55:09.858Z,8.60
2023-01-02T04:57:38.222Z,10.20
2023-01-02T05:00:07.849Z,7.97
2023-01-02T05:02:39.584Z,9.30
2023-01-02T05:05:08.345Z,8.30
2023-01-02T05:07:37.167Z,8.82
2023-01-02T05:10:05.405Z,8.27
2023-01-02T05:12:37.188Z,8.18
2023-01-02T05:15:06.337Z,9.90
2023-01-02T05:17:41.354Z,9.25
2023-01-02T05:20:11.451Z,9.32
2023-01-02T05:22:58.129Z,8.57
2023-01-02T05:25:26.589Z,9.38
2023-01-02T05:27:54.821Z,9.30
2023-01-02T05:30:23.236Z,10.23
2023-01-02T05:32:50.560Z,7.78
2023-01-02T05:35:17.913Z,10.48
2023-01-02T05:37:45.718Z,13.30
2023-01-02T05:40:13.402Z,11.98
2023-01-02T05:42:40.704Z,10.07
2023-01-02T05:45:11.787Z,9.82
2023-01-02T05:47:39.032Z,7.83
2023-01-02T05:50:06.855Z,8.38
2023-01-02T05:52:34.115Z,10.75
2023-01-02T05:55:01.543Z,9.68
2023-01-02T05:57:28.747Z,10.00
2023-01-02T05:59:55.901Z,9.85
2023-01-02T06:02:23.367Z,8.07
2023-01-02T06:04:50.812Z,7.30
2023-01-02T06:07:18.231Z,9.50
2023-01-02T06:09:45.590Z,8.77
2023-01-02T06:12:12.820Z,11.43
2023-01-02T06:14:40.081Z,9.75
2023-01-02T06:17:07.395Z,8.77
2023-01-02T06:19:34.619Z,10.15
2023-01-02T06:22:01.882Z,10.68
2023-01-02T06:24:29.096Z,10.07
2023-01-02T06:26:56.466Z,10.20
2023-01-02T06:29:23.820Z,9.05
2023-01-02T06:31:51.958Z,8.13
2023-01-02T06:34:19.564Z,11.73
2023-01-02T06:36:47.207Z,9.05
2023-01-02T06:39:14.541Z,13.70
2023-01-02T06:41:41.795Z,8.10
2023-01-02T06:44:12.823Z,9.00
2023-01-02T06:46:40.077Z,7.18
2023-01-02T06:49:07.365Z,10.20
2023-01-02T06:51:34.545Z,7.60
2023-01-02T06:54:01.802Z,8.85
2023-01-02T06:56:29.062Z,9.55
2023-01-02T06:58:56.453Z,8.55
2023-01-02T07:01:24.009Z,10.05
2023-01-02T07:03:51.718Z,8.23
2023-01-02T07:06:21.975Z,8.10
2023-01-02T07:08:49.973Z,9.27
2023-01-02T07:11:21.180Z,9.60
2023-01-02T07:13:50.598Z,9.70
2023-01-02T07:16:20.646Z,8.68
2023-01-02T07:18:48.702Z,9.02
2023-01-02T07:21:20.439Z,8.50
2023-01-02T07:23:47.794Z,9.23
2023-01-02T07:26:15.204Z,8.60
2023-01-02T07:28:42.523Z,10.93
2023-01-02T07:31:14.699Z,10.77
2023-01-02T07:33:42.545Z,10.43
2023-01-02T07:36:15.230Z,7.75
2023-01-02T07:38:42.979Z,9.48
2023-01-02T07:41:18.593Z,12.55
2023-01-02T07:43:46.992Z,8.55
2023-01-02T07:46:16.726Z,11.50
2023-01-02T07:48:44.741Z,8.32
2023-01-02T07:51:12.789Z,11.43
2023-01-02T07:53:41.766Z,8.63
2023-01-02T07:56:09.982Z,7.53
2023-01-02T07:58:37.419Z,8.30
2023-01-02T08:01:10.276Z,10.38
2023-01-02T08:03:38.020Z,7.57
2023-01-02T08:06:06.589Z,8.98
2023-01-02T08:08:35.498Z,10.82
2023-01-02T08:11:07.346Z,8.52
2023-01-02T08:13:35.424Z,8.93
2023-01-02T08:16:17.781Z,7.50
2023-01-02T08:18:46.823Z,8.50
2023-01-02T08:21:14.850Z,9.98
2023-01-02T08:23:42.396Z,8.95
2023-01-02T08:26:10.763Z,8.35
2023-01-02T08:28:39.975Z,7.40
2023-01-02T08:31:16.563Z,10.82
2023-01-02T08:33:44.384Z,8.40
2023-01-02T08:36:12.029Z,12.50
2023-01-02T08:38:39.571Z,10.15
2023-01-02T08:41:07.160Z,8.80
2023-01-02T08:43:35.708Z,13.57
2023-01-02T08:46:08.040Z,21.40
2023-01-02T08:48:36.009Z,15.55
2023-01-02T08:51:04.338Z,9.02
2023-01-02T08:53:31.717Z,7.63
2023-01-02T08:56:24.196Z,7.05
2023-01-02T08:58:57.235Z,11.45
2023-01-02T09:01:26.274Z,11.25
2023-01-02T09:03:54.957Z,13.57
2023-01-02T09:06:23.337Z,8.23
2023-01-02T09:08:56.134Z,12.02
2023-01-02T09:11:26.399Z,10.25
2023-01-02T09:13:54.611Z,7.07
2023-01-02T09:16:22.854Z,7.97
2023-01-02T09:18:51.260Z,11.13
2023-01-02T09:21:19.210Z,10.35
2023-01-02T09:23:46.681Z,10.38
2023-01-02T09:26:15.030Z,11.27
2023-01-02T09:28:42.865Z,10.13
2023-01-02T09:31:15.966Z,14.07
2023-01-02T09:33:44.908Z,19.45
2023-01-02T09:36:14.602Z,12.70
2023-01-02T09:38:42.732Z,9.27
2023-01-02T09:41:28.351Z,14.90
2023-01-02T09:44:13.264Z,12.98
2023-01-02T09:46:49.760Z,11.02
2023-01-02T09:49:21.424Z,10.35
2023-01-02T09:51:49.294Z,7.97
2023-01-02T09:54:29.408Z,8.25
2023-01-02T09:57:15.877Z,7.88
2023-01-02T09:59:57.020Z,8.05
2023-01-02T10:02:40.804Z,10.80
2023-01-02T10:05:34.311Z,7.57
2023-01-02T10:08:31.717Z,7.50
2023-01-02T10:11:21.449Z,6.97
2023-01-02T10:14:29.421Z,8.15
2023-01-02T10:17:05.566Z,8.95
2023-01-02T10:19:48.288Z,10.88
2023-01-02T10:22:22.848Z,13.57
2023-01-02T10:25:01.493Z,8.40
2023-01-02T10:27:38.297Z,9.40
2023-01-02T10:30:21.235Z,7.13
2023-01-02T10:33:10.878Z,8.25
2023-01-02T10:36:18.483Z,7.72
2023-01-02T10:38:45.750Z,8.60
2023-01-02T10:41:13.012Z,7.10
2023-01-02T10:43:40.539Z,9.18
2023-01-02T10:46:07.986Z,13.07
2023-01-02T10:48:38.442Z,9.32
2023-01-02T10:51:13.556Z,8.30
2023-01-02T10:53:40.979Z,9.85
2023-01-02T10:56:20.555Z,8.55
2023-01-02T10:58:50.918Z,6.95
2023-01-02T11:01:21.826Z,8.98
2023-01-02T11:04:10.252Z,7.38
2023-01-02T11:06:50.215Z,10.40
2023-01-02T11:09:29.521Z,7.10
2023-01-02T11:12:00.106Z,6.32
2023-01-02T11:14:32.839Z,9.15
2023-01-02T11:17:15.112Z,7.45
2023-01-02T11:19:45.308Z,7.28
2023-01-02T11:22:14.440Z,7.53
2023-01-02T11:25:00.601Z,10.80
2023-01-02T11:27:34.090Z,9.88
2023-01-02T11:30:02.320Z,7.25
2023-01-02T11:32:38.697Z,9.18
2023-01-02T11:35:27.116Z,7.60
2023-01-02T11:37:55.625Z,8.18
2023-01-02T11:40:29.207Z,8.02
2023-01-02T11:43:21.851Z,8.43
2023-01-02T11:45:49.535Z,9.45
2023-01-02T11:48:21.917Z,9.55
2023-01-02T11:50:50.840Z,7.53
2023-01-02T11:53:27.354Z,7.45
2023-01-02T11:56:02.550Z,8.20
2023-01-02T11:59:09.772Z,6.78
2023-01-02T12:01:49.256Z,8.27
2023-01-02T12:04:16.832Z,10.35
2023-01-02T12:07:00.675Z,6.38
2023-01-02T12:10:09.042Z,6.93
2023-01-02T12:13:11.879Z,7.70
2023-01-02T12:15:39.121Z,8.35
2023-01-02T12:18:21.086Z,6.53
2023-01-02T12:21:05.526Z,8.23
2023-01-02T12:24:01.336Z,6.43
2023-01-02T12:26:49.894Z,8.40
2023-01-02T12:29:47.413Z,6.97
2023-01-02T12:32:41.225Z,7.35
2023-01-02T12:35:47.932Z,7.90
2023-01-02T12:38:33.722Z,7.85
2023-01-02T12:41:24.206Z,6.88
2023-01-02T12:44:22.261Z,6.95
2023-01-02T12:47:21.592Z,8.35
2023-01-02T12:50:16.155Z,7.03
2023-01-02T12:53:04.876Z,9.35
2023-01-02T12:55:46.195Z,7.25
2023-01-02T12:58:42.575Z,8.63
2023-01-02T13:01:21.581Z,8.57
2023-01-02T13:04:18.505Z,7.38
2023-01-02T13:07:07.924Z,8.63
2023-01-02T13:09:43.366Z,8.23
2023-01-02T13:12:16.797Z,9.15
2023-01-02T13:14:58.701Z,7.57
2023-01-02T13:20:21.011Z,8.70
2023-01-02T13:23:09.572Z,8.23
2023-01-02T13:25:42.641Z,7.65
2023-01-02T13:28:13.195Z,9.25
2023-01-02T13:31:05.460Z,5.93
2023-01-02T13:33:49.877Z,10.20
2023-01-02T13:36:28.583Z,7.88
2023-01-02T13:39:03.485Z,8.35
2023-01-02T13:41:57.774Z,8.70
2023-01-02T13:44:36.222Z,8.68
2023-01-02T13:47:31.721Z,9.02
2023-01-02T13:50:07.762Z,9.40
2023-01-02T13:52:35.053Z,8.98
2023-01-02T13:55:21.352Z,10.00
2023-01-02T13:58:18.432Z,7.80
2023-01-02T14:00:54.903Z,9.68
2023-01-02T14:03:23.277Z,8.98
2023-01-02T14:06:28.554Z,6.18
2023-01-02T14:09:04.922Z,8.27
2023-01-02T14:11:55.579Z,8.32
2023-01-02T14:14:33.583Z,10.98
2023-01-02T14:17:37.448Z,9.98
2023-01-02T14:20:26.193Z,8.10
2023-01-02T14:22:58.724Z,11.90
2023-01-02T14:25:26.788Z,11.98
2023-01-02T14:27:58.878Z,9.23
2023-01-02T14:33:01.027Z,13.48
2023-01-02T14:35:38.929Z,12.25
2023-01-02T14:38:11.494Z,9.20
2023-01-02T14:40:43.964Z,9.98
2023-01-02T14:43:32.616Z,11.00
2023-01-02T14:46:25.635Z,14.77
2023-01-02T14:49:25.437Z,11.63
2023-01-02T14:52:02.601Z,10.77
2023-01-02T14:54:40.063Z,12.73
2023-01-02T14:57:22.167Z,15.63
2023-01-02T14:59:52.679Z,9.45
2023-01-02T15:02:35.802Z,18.55
2023-01-02T15:05:11.862Z,20.67
2023-01-02T15:07:53.123Z,8.10
2023-01-02T15:10:23.176Z,14.93
2023-01-02T15:13:03.985Z,11.32
2023-01-02T15:15:37.976Z,13.60
2023-01-02T15:18:12.493Z,13.68
2023-01-02T15:20:40.068Z,13.15
2023-01-02T15:23:07.694Z,11.93
2023-01-02T15:25:36.691Z,9.50
2023-01-02T15:28:05.423Z,11.60
2023-01-02T15:30:38.681Z,16.70
2023-01-02T15:33:28.997Z,8.57
2023-01-02T15:36:02.500Z,14.23
2023-01-02T15:38:30.280Z,10.65
2023-01-02T15:40:57.944Z,11.32
2023-01-02T15:43:47.948Z,11.15
2023-01-02T15:46:16.170Z,14.85
2023-01-02T15:48:44.504Z,15.60
2023-01-02T15:51:17.873Z,13.18
2023-01-02T15:53:47.179Z,17.05
2023-01-02T15:56:36.499Z,15.95
2023-01-02T15:59:23.630Z,13.50
2023-01-02T16:01:51.091Z,10.48
2023-01-02T16:04:30.966Z,14.90
2023-01-02T16:07:01.544Z,12.25
2023-01-02T16:09:34.151Z,15.15
2023-01-02T16:12:04.031Z,14.73
2023-01-02T16:14:41.864Z,11.32
2023-01-02T16:17:11.777Z,13.88
2023-01-02T16:20:00.275Z,14.15
2023-01-02T16:22:33.778Z,13.43
2023-01-02T16:25:07.815Z,13.13
2023-01-02T16:28:02.095Z,14.98
2023-01-02T16:30:43.500Z,20.40
2023-01-02T16:33:24.335Z,14.68
2023-01-02T16:35:59.902Z,17.10
2023-01-02T16:38:28.346Z,20.73
2023-01-02T16:41:04.496Z,14.00
2023-01-02T16:43:38.017Z,13.43
2023-01-02T16:46:13.665Z,14.88
2023-01-02T16:48:42.878Z,20.30
2023-01-02T16:51:10.217Z,15.07
2023-01-02T16:53:40.920Z,10.07
2023-01-02T16:56:11.239Z,12.95
2023-01-02T16:58:38.856Z,11.02
2023-01-02T17:01:11.060Z,11.07
2023-01-02T17:03:39.928Z,11.82
2023-01-02T17:06:12.789Z,17.27
2023-01-02T17:08:40.479Z,13.48
2023-01-02T17:11:08.063Z,14.98
2023-01-02T17:13:35.308Z,12.18
2023-01-02T17:16:02.894Z,14.98
2023-01-02T17:18:30.235Z,13.50
2023-01-02T17:20:58.170Z,20.05
2023-01-02T17:23:25.532Z,17.80
2023-01-02T17:25:52.890Z,10.43
2023-01-02T17:28:20.510Z,20.55
2023-01-02T17:30:51.753Z,18.45
2023-01-02T17:33:20.039Z,13.55
2023-01-02T17:35:48.723Z,16.23
2023-01-02T17:38:16.754Z,10.98
2023-01-02T17:40:44.808Z,11.52
2023-01-02T17:43:12.326Z,12.90
2023-01-02T17:45:43.005Z,16.08
2023-01-02T17:48:13.404Z,14.52
2023-01-02T17:50:47.151Z,15.82
2023-01-02T17:53:15.737Z,17.95
2023-01-02T17:55:49.783Z,11.32
2023-01-02T17:58:17.079Z,12.63
2023-01-02T18:00:44.726Z,11.65
2023-01-02T18:03:12.072Z,15.77
2023-01-02T18:05:39.465Z,15.45
2023-01-02T18:08:06.953Z,14.65
2023-01-02T18:10:36.821Z,17.02
2023-01-02T18:13:07.470Z,16.95
2023-01-02T18:15:36.673Z,12.70
2023-01-02T18:18:13.259Z,11.93
2023-01-02T18:20:41.731Z,15.65
2023-01-02T18:23:14.351Z,12.43
2023-01-02T18:25:42.147Z,14.43
2023-01-02T18:28:26.601Z,12.73
2023-01-02T18:30:58.362Z,14.65
2023-01-02T18:33:28.099Z,15.13
2023-01-02T18:36:02.670Z,9.55
2023-01-02T18:38:42.006Z,10.50
2023-01-02T18:41:18.569Z,11.38
2023-01-02T18:43:48.272Z,11.57
2023-01-02T18:46:22.607Z,12.30
2023-01-02T18:48:50.035Z,8.95
2023-01-02T18:51:20.944Z,9.00
2023-01-02T18:53:53.376Z,13.93
2023-01-02T18:56:26.923Z,12.75
2023-01-02T18:59:02.850Z,7.38
2023-01-02T19:01:40.957Z,10.50
2023-01-02T19:04:22.097Z,10.27
2023-01-02T19:07:01.403Z,11.07
2023-01-02T19:09:33.574Z,9.02
2023-01-02T19:12:43.963Z,11.20
2023-01-02T19:15:34.491Z,11.68
2023-01-02T19:18:14.019Z,12.82
2023-01-02T19:20:43.000Z,10.60
2023-01-02T19:23:29.853Z,8.80
2023-01-02T19:26:15.931Z,13.38
2023-01-02T19:28:56.841Z,8.90
2023-01-02T19:31:24.698Z,7.57
2023-01-02T19:34:01.478Z,15.13
2023-01-02T19:36:37.695Z,11.02
2023-01-02T19:39:35.583Z,11.15
2023-01-02T19:42:21.027Z,8.20
2023-01-02T19:45:03.959Z,9.23
2023-01-02T19:47:33.771Z,9.70
2023-01-02T19:50:01.973Z,8.05
2023-01-02T19:52:30.546Z,8.30
2023-01-02T19:54:58.497Z,9.43
2023-01-02T19:57:26.865Z,11.07
2023-01-02T19:59:56.208Z,10.43
2023-01-02T20:02:26.157Z,10.75
2023-01-02T20:04:55.474Z,8.35
2023-01-02T20:07:24.191Z,9.88
2023-01-02T20:09:52.273Z,10.43
2023-01-02T20:12:40.504Z,9.38
2023-01-02T20:15:25.238Z,7.70
2023-01-02T20:17:53.901Z,7.75
2023-01-02T20:20:24.705Z,7.30
2023-01-02T20:22:52.509Z,7.70
2023-01-02T20:25:24.407Z,6.22
2023-01-02T20:27:54.073Z,6.50
2023-01-02T20:30:24.649Z,8.75
2023-01-02T20:32:53.731Z,8.82
2023-01-02T20:35:21.664Z,6.43
2023-01-02T20:37:49.718Z,7.93
2023-01-02T20:40:17.852Z,5.80
2023-01-02T20:42:45.152Z,4.88
2023-01-02T20:45:13.224Z,7.55
2023-01-02T20:47:40.701Z,6.75
2023-01-02T20:50:11.044Z,5.22
2023-01-02T20:52:38.669Z,4.35
2023-01-02T20:55:06.591Z,6.78
2023-01-02T20:57:34.018Z,5.13
2023-01-02T21:00:01.465Z,8.73
2023-01-02T21:02:28.948Z,3.35
2023-01-02T21:04:57.950Z,2.92
2023-01-02T21:07:26.572Z,4.00
2023-01-02T21:09:57.741Z,3.88
2023-01-02T21:12:43.570Z,3.33
2023-01-02T21:15:34.702Z,5.25
2023-01-02T21:18:02.411Z,3.20
2023-01-02T21:20:30.556Z,4.28
2023-01-02T21:22:57.875Z,3.60
2023-01-02T21:25:25.149Z,8.25
2023-01-02T21:27:52.648Z,4.32
2023-01-02T21:30:19.983Z,2.28
2023-01-02T21:32:47.362Z,2.58
2023-01-02T21:35:14.874Z,3.42
2023-01-02T21:37:42.336Z,5.60
2023-01-02T21:40:10.305Z,5.20
2023-01-02T21:42:44.359Z,3.28
2023-01-02T21:45:12.383Z,3.53
2023-01-02T21:47:40.489Z,3.00
2023-01-02T21:50:09.787Z,3.17
2023-01-02T21:52:37.386Z,3.28
2023-01-02T21:55:05.511Z,2.63
2023-01-02T21:58:11.031Z,3.17
2023-01-02T22:00:24.052Z,2.75
2023-01-02T22:02:52.244Z,3.33
2023-01-02T22:05:20.377Z,2.92
2023-01-02T22:07:47.752Z,2.60
2023-01-02T22:10:16.384Z,4.68
2023-01-02T22:12:44.002Z,4.47
2023-01-02T22:15:12.458Z,2.95
2023-01-02T22:17:40.122Z,4.20
2023-01-02T22:20:08.523Z,3.90
2023-01-02T22:22:35.971Z,2.75
2023-01-02T22:25:04.916Z,4.35
2023-01-02T22:27:32.306Z,4.82
2023-01-02T22:32:49.414Z,2.72
2023-01-02T22:35:18.948Z,2.90
2023-01-02T22:37:46.980Z,2.67
2023-01-02T22:40:15.245Z,3.65
2023-01-02T22:43:02.244Z,3.17
2023-01-02T22:45:44.281Z,4.22
2023-01-02T22:48:19.399Z,3.58
2023-01-02T22:50:49.793Z,3.85
2023-01-02T22:53:23.757Z,5.22
2023-01-02T22:55:51.736Z,4.80
2023-01-02T22:58:19.915Z,4.75
2023-01-02T23:00:49.455Z,3.30
2023-01-02T23:03:17.269Z,3.00
2023-01-02T23:05:45.328Z,3.90
2023-01-02T23:08:13.839Z,3.80
2023-01-02T23:10:42.104Z,5.25
2023-01-02T23:13:09.625Z,3.83
2023-01-02T23:15:57.005Z,3.67
2023-01-02T23:18:42.745Z,2.70
2023-01-02T23:21:10.647Z,3.55
2023-01-02T23:23:38.285Z,4.00
2023-01-02T23:26:06.807Z,4.90
2023-01-02T23:31:22.333Z,6.85
2023-01-02T23:33:49.717Z,3.90
2023-01-02T23:36:17.060Z,3.30
2023-01-02T23:38:44.623Z,5.25
2023-01-02T23:41:12.004Z,3.97
2023-01-02T23:43:39.400Z,3.47
2023-01-02T23:46:06.904Z,3.20
2023-01-02T23:48:34.221Z,4.00
2023-01-02T23:51:03.554Z,4.97
2023-01-02T23:53:32.292Z,4.25
2023-01-02T23:55:59.548Z,3.80
2023-01-02T23:58:26.852Z,3.70
